Time;durP1;ratioP1;P1;durP2;ratioP2;P2;SDS_P1;SDS_P2;PMS_P1;PMS_P2;Temp;Humidity;BMP_temperature;BMP_pressure;BME280_temperature;BME280_humidity;BME280_pressure;Samples;Min_cycle;Max_cycle;Signal;HPM_P1;HPM_P2
2022/05/03 00:01:57;;;;;;;5.37;4.47;;;24.30;51.20;;;;;;4997303;28;20040;-73
2022/05/03 00:05:00;;;;;;;5.55;4.03;;;24.30;51.00;;;;;;5001783;28;20034;-73
2022/05/03 00:07:55;;;;;;;5.88;4.38;;;24.30;51.00;;;;;;5009613;28;20049;-72
2022/05/03 00:11:09;;;;;;;5.85;3.75;;;24.30;51.00;;;;;;4992940;28;20050;-73
2022/05/03 00:14:06;;;;;;;4.90;4.15;;;24.20;51.00;;;;;;5003989;28;20480;-73
2022/05/03 00:16:33;;;;;;;4.53;4.13;;;24.20;51.00;;;;;;5010178;28;20045;-74
2022/05/03 00:19:00;;;;;;;5.95;4.28;;;24.20;51.00;;;;;;5001191;28;20348;-73
2022/05/03 00:21:26;;;;;;;4.75;4.30;;;24.60;51.20;;;;;;5018314;28;20461;-73
2022/05/03 00:23:51;;;;;;;6.53;4.40;;;24.20;51.10;;;;;;5018738;28;20136;-74
2022/05/03 00:26:17;;;;;;;5.47;4.60;;;24.20;51.10;;;;;;5021945;28;20072;-74
2022/05/03 00:28:42;;;;;;;6.97;4.70;;;24.20;51.10;;;;;;5018885;28;20071;-73
2022/05/03 00:31:08;;;;;;;6.85;4.68;;;24.30;51.10;;;;;;5007555;28;20029;-73
2022/05/03 00:33:33;;;;;;;5.78;5.05;;;24.20;51.10;;;;;;5013756;28;20033;-73
2022/05/03 00:35:59;;;;;;;6.50;4.82;;;24.20;51.10;;;;;;5010560;28;20025;-73
2022/05/03 00:38:25;;;;;;;5.55;4.75;;;24.20;51.20;;;;;;5004245;28;20022;-73
2022/05/03 00:40:54;;;;;;;6.60;4.75;;;24.10;51.10;;;;;;5003465;28;20034;-74
2022/05/03 00:43:40;;;;;;;6.82;5.32;;;24.10;51.10;;;;;;5002640;28;20026;-73
2022/05/03 00:46:10;;;;;;;8.32;5.40;;;24.10;51.10;;;;;;5006791;28;20054;-74
2022/05/03 00:48:57;;;;;;;6.40;5.45;;;24.10;51.10;;;;;;5002560;28;20038;-74
2022/05/03 00:51:34;;;;;;;7.10;5.43;;;24.20;51.20;;;;;;4999902;28;20033;-73
2022/05/03 00:54:20;;;;;;;6.88;5.78;;;24.20;51.20;;;;;;5012932;28;20030;-73
2022/05/03 00:56:57;;;;;;;6.10;5.50;;;24.10;51.20;;;;;;5019144;28;20248;-73
2022/05/03 00:59:32;;;;;;;7.03;5.50;;;24.00;51.10;;;;;;5021740;28;20032;-73
2022/05/03 01:02:01;;;;;;;;;;;24.10;51.20;;;;;;5022448;28;20393;-73
2022/05/03 01:04:41;;;;;;;6.57;5.88;;;24.10;51.20;;;;;;5028914;28;19916;-74
2022/05/03 01:07:26;;;;;;;8.93;5.75;;;24.10;51.20;;;;;;5034175;28;20041;-73
2022/05/03 01:10:03;;;;;;;8.85;6.30;;;24.10;51.20;;;;;;5016737;28;20112;-73
2022/05/03 01:12:39;;;;;;;8.80;6.30;;;24.10;51.20;;;;;;5006288;28;20030;-74
2022/05/03 01:15:17;;;;;;;7.25;6.53;;;24.10;51.20;;;;;;5012220;28;20108;-72
2022/05/03 01:18:05;;;;;;;7.88;6.32;;;24.10;51.30;;;;;;5016658;28;20030;-72
2022/05/03 01:21:03;;;;;;;8.05;5.80;;;24.10;51.30;;;;;;5019719;28;20044;-74
2022/05/03 01:24:16;;;;;;;7.40;6.13;;;24.10;51.30;;;;;;5021373;28;20052;-74
2022/05/03 01:27:05;;;;;;;9.00;6.07;;;24.10;51.30;;;;;;5000402;28;20449;-74
2022/05/03 01:29:32;;;;;;;7.60;6.38;;;24.10;51.30;;;;;;4998478;28;20049;-74
2022/05/03 01:32:04;;;;;;;7.72;6.55;;;24.10;51.30;;;;;;4997725;28;20514;-73
2022/05/03 01:34:29;;;;;;;7.88;6.68;;;24.00;51.30;;;;;;5012447;28;20405;-72
2022/05/03 01:37:07;;;;;;;9.40;6.80;;;24.10;51.30;;;;;;5025551;28;20034;-71
2022/05/03 01:40:07;;;;;;;8.27;6.53;;;24.10;51.30;;;;;;5012998;28;20047;-73
2022/05/03 01:42:45;;;;;;;9.02;7.20;;;24.10;51.40;;;;;;5007509;28;20596;-73
2022/05/03 01:45:10;;;;;;;8.98;7.57;;;24.10;51.40;;;;;;5014881;28;20490;-73
2022/05/03 01:47:44;;;;;;;8.27;6.72;;;24.00;51.40;;;;;;5002464;28;20057;-73
2022/05/03 01:50:41;;;;;;;9.30;6.93;;;24.10;51.40;;;;;;5024365;28;20274;-73
2022/05/03 01:53:22;;;;;;;9.45;7.05;;;24.10;51.40;;;;;;5012466;28;20298;-73
2022/05/03 01:56:26;;;;;;;9.00;7.18;;;24.00;51.40;;;;;;5015632;28;20037;-73
2022/05/03 01:59:14;;;;;;;8.32;7.10;;;24.00;51.40;;;;;;5015051;28;20039;-73
2022/05/03 02:01:39;;;;;;;10.32;6.95;;;24.00;51.40;;;;;;5019546;28;20038;-73
2022/05/03 02:04:27;;;;;;;9.57;7.75;;;24.00;52.10;;;;;;5005836;28;20034;-73
2022/05/03 02:07:02;;;;;;;8.68;7.43;;;24.00;51.40;;;;;;5009533;28;20124;-73
2022/05/03 02:10:12;;;;;;;8.77;7.28;;;24.00;51.40;;;;;;5016416;28;20032;-73
2022/05/03 02:12:37;;;;;;;9.25;7.53;;;24.00;51.40;;;;;;5002610;28;20021;-73
2022/05/03 02:15:07;;;;;;;11.13;8.27;;;24.00;51.50;;;;;;5022372;28;20056;-73
2022/05/03 02:17:52;;;;;;;11.27;7.68;;;24.00;51.50;;;;;;5014156;28;20041;-73
2022/05/03 02:20:49;;;;;;;9.65;7.95;;;24.00;51.50;;;;;;5006169;28;20649;-73
2022/05/03 02:23:20;;;;;;;10.75;8.35;;;24.00;51.50;;;;;;5017869;28;20946;-73
2022/05/03 02:25:55;;;;;;;13.05;8.02;;;24.00;51.50;;;;;;5020847;28;20099;-73
2022/05/03 02:28:27;;;;;;;9.68;7.45;;;24.00;51.50;;;;;;5031110;28;20036;-73
2022/05/03 02:30:53;;;;;;;11.10;7.75;;;24.00;51.50;;;;;;5012552;28;20033;-73
2022/05/03 02:33:38;;;;;;;11.38;7.82;;;24.00;51.60;;;;;;5019275;28;20040;-73
2022/05/03 02:36:04;;;;;;;12.55;8.48;;;24.70;51.90;;;;;;5013129;28;20094;-73
2022/05/03 02:38:42;;;;;;;9.93;7.60;;;24.00;51.50;;;;;;5022465;28;20475;-73
2022/05/03 02:41:08;;;;;;;9.75;8.55;;;24.00;51.50;;;;;;5002598;28;20144;-73
2022/05/03 02:43:34;;;;;;;10.02;7.85;;;24.00;51.50;;;;;;5024504;28;20032;-73
2022/05/03 02:46:04;;;;;;;10.88;8.38;;;24.00;51.50;;;;;;5004180;28;20057;-73
2022/05/03 02:48:38;;;;;;;10.90;8.63;;;24.00;51.60;;;;;;5019898;28;20517;-73
2022/05/03 02:51:04;;;;;;;10.02;8.00;;;24.00;51.60;;;;;;5009989;28;20037;-73
2022/05/03 02:53:36;;;;;;;11.00;8.73;;;23.70;51.40;;;;;;5028549;28;20056;-74
2022/05/03 02:56:26;;;;;;;11.45;8.45;;;23.90;51.60;;;;;;5027519;28;20335;-73
2022/05/03 02:58:57;;;;;;;13.38;8.82;;;23.90;51.60;;;;;;5025186;28;20034;-74
2022/05/03 03:04:54;;;;;;;12.07;8.13;;;23.90;51.60;;;;;;5013143;28;20482;-73
2022/05/03 03:07:20;;;;;;;11.50;9.20;;;23.90;51.60;;;;;;5007075;28;20091;-73
2022/05/03 03:10:04;;;;;;;11.57;8.77;;;24.40;51.90;;;;;;5020672;28;20026;-74
2022/05/03 03:13:06;;;;;;;10.23;8.50;;;23.90;51.60;;;;;;5017007;28;20464;-73
2022/05/03 03:15:34;;;;;;;13.18;9.02;;;23.90;51.60;;;;;;5019237;28;20329;-73
2022/05/03 03:18:00;;;;;;;10.48;8.63;;;23.90;51.60;;;;;;5025106;28;20396;-73
2022/05/03 03:20:28;;;;;;;12.55;8.85;;;24.00;51.70;;;;;;5014471;28;20025;-73
2022/05/03 03:22:54;;;;;;;11.73;8.88;;;23.90;51.70;;;;;;5008928;28;20117;-73
2022/05/03 03:25:21;;;;;;;14.13;9.15;;;24.00;51.70;;;;;;5026320;28;20475;-73
2022/05/03 03:27:51;;;;;;;12.85;9.88;;;23.90;51.70;;;;;;5024630;28;20727;-73
2022/05/03 03:30:16;;;;;;;11.02;8.77;;;23.80;51.60;;;;;;5016414;28;20040;-73
2022/05/03 03:32:47;;;;;;;16.13;9.68;;;23.90;51.70;;;;;;5017369;28;20332;-73
2022/05/03 03:35:14;;;;;;;14.95;9.30;;;23.80;51.60;;;;;;5014193;28;20035;-73
2022/05/03 03:37:41;;;;;;;12.77;10.07;;;23.80;51.70;;;;;;5016702;28;20260;-73
2022/05/03 03:40:07;;;;;;;11.95;9.05;;;23.90;51.70;;;;;;5022266;28;20095;-73
2022/05/03 03:42:33;;;;;;;12.57;9.93;;;23.80;51.70;;;;;;5014816;28;20457;-73
2022/05/03 03:45:07;;;;;;;12.20;9.32;;;23.90;51.70;;;;;;5017334;28;20026;-73
2022/05/03 03:47:32;;;;;;;12.70;9.38;;;23.80;51.70;;;;;;5012997;28;20134;-73
2022/05/03 03:49:58;;;;;;;11.45;9.52;;;23.80;51.70;;;;;;5025421;28;20037;-73
2022/05/03 03:52:25;;;;;;;12.77;9.63;;;23.80;51.70;;;;;;5026097;28;20060;-72
2022/05/03 03:54:50;;;;;;;13.02;9.52;;;24.00;51.80;;;;;;5019714;28;20032;-73
2022/05/03 03:57:16;;;;;;;12.55;9.40;;;23.80;51.70;;;;;;5015574;28;20038;-73
2022/05/03 03:59:41;;;;;;;10.48;9.00;;;23.80;52.40;;;;;;5032919;28;20417;-73
2022/05/03 04:02:07;;;;;;;12.20;9.43;;;24.50;52.10;;;;;;5011591;28;20108;-73
2022/05/03 04:04:36;;;;;;;12.27;9.05;;;23.80;51.80;;;;;;5018737;28;20030;-73
2022/05/03 04:07:02;;;;;;;11.80;9.80;;;24.20;52.00;;;;;;5027488;28;20040;-73
2022/05/03 04:09:28;;;;;;;13.20;9.50;;;23.80;51.80;;;;;;5012482;28;20086;-73
2022/05/03 04:11:53;;;;;;;14.07;9.65;;;23.80;51.80;;;;;;5020074;28;20260;-73
2022/05/03 04:14:19;;;;;;;15.23;10.25;;;24.10;52.00;;;;;;5021015;28;20030;-73
2022/05/03 04:16:45;;;;;;;12.52;9.45;;;23.80;51.80;;;;;;5016641;28;20025;-73
2022/05/03 04:19:11;;;;;;;14.75;9.50;;;24.00;51.90;;;;;;5033130;28;20156;-74
2022/05/03 04:21:37;;;;;;;14.07;9.63;;;23.80;51.80;;;;;;5011012;28;20167;-73
2022/05/03 04:24:02;;;;;;;10.35;8.65;;;23.80;51.80;;;;;;5009442;28;20350;-74
2022/05/03 04:26:28;;;;;;;12.85;9.52;;;23.80;51.80;;;;;;5018458;28;20041;-73
2022/05/03 04:28:57;;;;;;;13.70;9.90;;;23.80;51.80;;;;;;5008427;28;20129;-73
2022/05/03 04:31:26;;;;;;;13.65;9.77;;;23.80;51.80;;;;;;5004781;28;20344;-73
2022/05/03 04:33:52;;;;;;;13.68;9.80;;;23.80;51.80;;;;;;5017924;28;20057;-74
2022/05/03 04:36:18;;;;;;;11.82;9.38;;;23.90;51.90;;;;;;5008702;28;20132;-74
2022/05/03 04:38:43;;;;;;;13.90;9.93;;;23.80;51.80;;;;;;5002020;28;20033;-73
2022/05/03 04:41:09;;;;;;;14.65;9.80;;;23.80;51.80;;;;;;4997364;28;20084;-73
2022/05/03 04:43:34;;;;;;;12.88;9.40;;;23.80;51.80;;;;;;5004121;28;20049;-74
2022/05/03 04:46:00;;;;;;;11.10;9.52;;;23.70;51.80;;;;;;5004546;28;20389;-73
2022/05/03 04:48:25;;;;;;;14.10;9.52;;;23.80;51.80;;;;;;5001117;28;20025;-73
2022/05/03 04:50:51;;;;;;;11.75;9.77;;;23.10;51.50;;;;;;5004015;28;20042;-73
2022/05/03 04:53:16;;;;;;;12.05;9.38;;;23.80;51.80;;;;;;5012064;28;20021;-73
2022/05/03 04:55:42;;;;;;;13.18;9.07;;;23.80;51.80;;;;;;5029472;28;20028;-73
2022/05/03 04:58:07;;;;;;;11.45;9.13;;;23.80;51.80;;;;;;5012080;28;20435;-73
2022/05/03 05:00:33;;;;;;;13.63;10.38;;;23.80;51.80;;;;;;5024643;28;20364;-73
2022/05/03 05:02:59;;;;;;;14.25;9.30;;;23.90;51.80;;;;;;5012989;28;20037;-74
2022/05/03 05:05:24;;;;;;;12.40;9.25;;;23.80;51.80;;;;;;5031191;28;20100;-74
2022/05/03 05:07:50;;;;;;;14.30;10.40;;;23.80;51.80;;;;;;5022992;28;20040;-74
2022/05/03 05:10:24;;;;;;;14.38;9.63;;;23.80;51.80;;;;;;5028825;28;20126;-74
2022/05/03 05:12:55;;;;;;;13.93;9.65;;;23.80;51.80;;;;;;5007566;28;20039;-74
2022/05/03 05:15:24;;;;;;;11.40;9.45;;;23.80;51.80;;;;;;5016080;28;20043;-74
2022/05/03 05:17:51;;;;;;;13.88;9.75;;;23.80;51.80;;;;;;5029984;28;20041;-74
2022/05/03 05:20:17;;;;;;;13.60;9.57;;;23.80;51.70;;;;;;5012218;28;20030;-74
2022/05/03 05:22:43;;;;;;;12.50;9.38;;;23.80;51.70;;;;;;5020193;28;20291;-74
2022/05/03 05:25:09;;;;;;;12.32;9.23;;;23.80;51.70;;;;;;5016653;28;20366;-72
2022/05/03 05:27:34;;;;;;;14.35;10.18;;;23.90;51.70;;;;;;5023827;28;20502;-74
2022/05/03 05:30:00;;;;;;;13.05;9.73;;;24.00;51.80;;;;;;5013716;28;20341;-73
2022/05/03 05:32:25;;;;;;;11.43;8.93;;;23.80;51.60;;;;;;5012833;28;20031;-73
2022/05/03 05:34:51;;;;;;;14.07;9.35;;;23.90;51.70;;;;;;5020897;28;20401;-73
2022/05/03 05:37:16;;;;;;;13.32;9.65;;;23.90;51.70;;;;;;5003990;28;20127;-74
2022/05/03 05:39:42;;;;;;;13.30;10.38;;;23.90;51.70;;;;;;5013133;28;20030;-74
2022/05/03 05:42:08;;;;;;;12.48;9.88;;;23.90;51.60;;;;;;5006144;28;20175;-73
2022/05/03 05:44:35;;;;;;;14.65;9.98;;;23.90;51.60;;;;;;5008446;28;20145;-74
2022/05/03 05:47:00;;;;;;;11.55;8.82;;;23.90;51.60;;;;;;5021351;28;20053;-74
2022/05/03 05:49:26;;;;;;;11.63;8.95;;;23.90;51.50;;;;;;5007591;28;20020;-74
2022/05/03 05:53:31;;;;;;;12.10;9.13;;;23.90;51.50;;;;;;5024561;28;20516;-74
2022/05/03 05:54:37;;;;;;;11.63;9.77;;;24.00;51.60;;;;;;5036037;28;20029;-74
2022/05/03 05:57:03;;;;;;;12.93;9.50;;;24.00;51.50;;;;;;5025894;28;20041;-74
2022/05/03 05:59:28;;;;;;;14.75;10.60;;;24.00;51.50;;;;;;5029800;28;20385;-74
2022/05/03 06:01:54;;;;;;;13.48;9.73;;;24.00;51.50;;;;;;5023549;28;20041;-74
2022/05/03 06:04:19;;;;;;;10.88;9.32;;;24.00;51.50;;;;;;5031260;28;20402;-74
2022/05/03 06:06:45;;;;;;;13.35;9.18;;;24.00;51.50;;;;;;5036941;28;20051;-74
2022/05/03 06:09:10;;;;;;;13.77;9.85;;;24.00;51.50;;;;;;5021718;28;20053;-74
2022/05/03 06:11:35;;;;;;;12.82;9.85;;;24.00;51.40;;;;;;5022805;28;20029;-74
2022/05/03 06:14:01;;;;;;;11.43;9.25;;;24.00;51.40;;;;;;5025596;28;20075;-72
2022/05/03 06:16:28;;;;;;;11.77;10.25;;;24.00;52.00;;;;;;5021900;28;20037;-73
2022/05/03 06:18:53;;;;;;;11.52;9.68;;;24.10;51.40;;;;;;5015466;28;20061;-73
2022/05/03 06:21:19;;;;;;;14.15;10.23;;;24.10;51.40;;;;;;5009855;28;20557;-73
2022/05/03 06:23:44;;;;;;;13.05;9.82;;;24.10;51.50;;;;;;5022921;28;20132;-73
2022/05/03 06:26:10;;;;;;;13.98;9.98;;;24.10;51.40;;;;;;5022309;28;20079;-73
2022/05/03 06:28:36;;;;;;;13.38;9.38;;;24.10;51.40;;;;;;5016282;28;20367;-73
2022/05/03 06:31:01;;;;;;;13.85;9.10;;;24.20;51.40;;;;;;5030944;28;20025;-73
2022/05/03 06:33:27;;;;;;;13.07;9.20;;;24.00;51.30;;;;;;5038998;28;20032;-73
2022/05/03 06:35:52;;;;;;;11.82;9.43;;;24.20;51.40;;;;;;5035748;28;20474;-73
2022/05/03 06:38:18;;;;;;;12.80;9.25;;;24.30;51.40;;;;;;5024916;28;20424;-74
2022/05/03 06:40:43;;;;;;;13.43;9.55;;;24.80;51.70;;;;;;5020221;28;20047;-73
2022/05/03 06:43:09;;;;;;;11.38;9.00;;;24.30;51.30;;;;;;5036207;28;20025;-74
2022/05/03 06:45:35;;;;;;;16.85;10.45;;;24.30;51.30;;;;;;5026593;28;20056;-74
2022/05/03 06:48:00;;;;;;;12.57;9.05;;;25.10;51.70;;;;;;5002080;28;20442;-74
2022/05/03 06:50:27;;;;;;;10.82;8.60;;;24.30;51.20;;;;;;5027096;28;20281;-74
2022/05/03 06:52:52;;;;;;;13.38;9.55;;;24.30;51.20;;;;;;5040128;28;20033;-74
2022/05/03 06:55:18;;;;;;;10.70;8.80;;;24.40;51.20;;;;;;5034320;28;20045;-74
2022/05/03 06:57:43;;;;;;;12.45;8.43;;;24.40;51.20;;;;;;5018885;28;20516;-74
2022/05/03 07:00:09;;;;;;;11.95;8.80;;;24.40;51.10;;;;;;5053482;28;20431;-73
2022/05/03 07:02:35;;;;;;;11.32;8.85;;;24.40;51.10;;;;;;5004130;28;20113;-73
2022/05/03 07:05:02;;;;;;;10.52;8.70;;;24.40;51.00;;;;;;5040105;28;20037;-73
2022/05/03 07:07:27;;;;;;;13.52;8.52;;;24.40;51.70;;;;;;5006470;28;20050;-74
2022/05/03 07:09:53;;;;;;;11.93;8.73;;;24.50;51.00;;;;;;5055034;28;20029;-73
2022/05/03 07:12:18;;;;;;;11.95;8.48;;;24.50;51.00;;;;;;5043193;28;20509;-73
2022/05/03 07:14:44;;;;;;;10.52;8.02;;;24.40;50.80;;;;;;5014788;28;20270;-73
2022/05/03 07:22:45;;;;;;;13.23;8.60;;;24.60;51.60;;;;;;5018877;28;20095;-74
2022/05/03 07:22:48;;;;;;;10.82;8.57;;;24.60;50.80;;;;;;5028662;28;20469;-74
2022/05/03 07:25:16;;;;;;;12.30;9.05;;;24.60;50.80;;;;;;5029062;28;20497;-74
2022/05/03 07:27:46;;;;;;;14.27;9.00;;;25.10;51.10;;;;;;5029584;28;20094;-74
2022/05/03 07:30:15;;;;;;;13.00;8.73;;;24.60;50.70;;;;;;5034764;28;20497;-74
2022/05/03 07:32:44;;;;;;;12.75;8.02;;;24.70;50.70;;;;;;5038647;28;20134;-74
2022/05/03 07:35:10;;;;;;;11.27;9.10;;;24.70;50.70;;;;;;5037163;28;20082;-74
2022/05/03 07:37:36;;;;;;;12.45;8.57;;;24.70;50.70;;;;;;5034082;28;20447;-74
2022/05/03 07:40:02;;;;;;;11.50;7.63;;;25.50;51.10;;;;;;5025396;28;20033;-74
2022/05/03 07:42:28;;;;;;;11.50;8.15;;;24.70;50.60;;;;;;5016840;28;20136;-74
2022/05/03 07:44:53;;;;;;;11.00;8.65;;;25.40;50.90;;;;;;5024891;28;20667;-74
2022/05/03 07:50:08;;;;;;;17.00;6.07;;;24.80;51.90;;;;;;4960008;27;1425683;-93
2022/05/03 07:52:47;;;;;;;15.75;5.35;;;24.60;51.90;;;;;;4937214;28;20071;-93
2022/05/03 07:58:23;;;;;;;10.90;8.52;;;25.10;50.20;;;;;;5077410;27;20431;-69
2022/05/03 08:00:49;;;;;;;11.85;7.90;;;24.80;50.20;;;;;;5088833;28;20067;-69
2022/05/03 08:03:16;;;;;;;11.73;7.90;;;24.90;50.00;;;;;;5090827;28;20032;-66
2022/05/03 08:05:42;;;;;;;10.60;7.63;;;24.80;50.20;;;;;;5093235;28;20036;-68
2022/05/03 08:18:31;;;;;;;14.43;4.95;;;22.80;54.00;;;;;;4998380;27;20848;-84
2022/05/03 08:20:56;;;;;;;13.82;4.80;;;20.60;60.10;;;;;;4989539;28;20116;-83
2022/05/03 08:23:22;;;;;;;7.93;5.07;;;20.30;60.50;;;;;;4985715;28;20492;-87
2022/05/03 08:25:48;;;;;;;10.05;4.93;;;20.10;60.80;;;;;;4990557;28;20515;-86
2022/05/03 08:28:13;;;;;;;12.55;4.85;;;19.90;61.20;;;;;;4988658;28;20030;-86
2022/05/03 08:30:39;;;;;;;10.30;4.38;;;19.70;61.50;;;;;;4990493;28;20045;-86
2022/05/03 08:33:04;;;;;;;13.13;5.05;;;19.70;61.70;;;;;;4969758;28;20038;-85
2022/05/03 08:35:30;;;;;;;10.75;4.55;;;19.60;61.90;;;;;;4998965;28;20034;-85
2022/05/03 08:43:24;;;;;;;11.18;3.97;;;19.50;62.20;;;;;;4985303;28;20045;-85
2022/05/03 08:45:50;;;;;;;8.20;4.38;;;19.40;62.30;;;;;;4986623;28;20496;-86
2022/05/03 08:48:16;;;;;;;13.70;4.63;;;19.40;62.20;;;;;;4993345;28;20471;-85
2022/05/03 08:50:42;;;;;;;8.40;4.55;;;19.90;62.60;;;;;;4989366;28;20324;-85
2022/05/03 08:53:07;;;;;;;6.50;4.20;;;20.20;62.90;;;;;;4981988;28;20521;-86
2022/05/03 08:55:33;;;;;;;8.98;4.68;;;20.10;62.90;;;;;;4985131;28;20097;-85
2022/05/03 08:57:58;;;;;;;9.52;4.88;;;19.30;62.40;;;;;;4987831;28;20041;-85
2022/05/03 09:00:25;;;;;;;14.50;5.07;;;19.20;62.20;;;;;;4989715;28;20380;-85
2022/05/03 09:02:55;;;;;;;8.60;4.10;;;19.30;62.30;;;;;;4993841;28;20038;-86
2022/05/03 09:05:21;;;;;;;7.38;4.25;;;19.30;62.20;;;;;;4990918;28;20070;-85
2022/05/03 09:07:48;;;;;;;8.10;4.30;;;19.30;62.20;;;;;;4976465;28;20262;-86
2022/05/03 09:10:18;;;;;;;7.55;4.30;;;19.20;62.10;;;;;;4986926;28;20571;-85
2022/05/03 09:12:44;;;;;;;8.60;4.40;;;19.60;62.40;;;;;;4986477;28;20496;-85
2022/05/03 09:15:11;;;;;;;7.00;3.72;;;19.60;62.30;;;;;;4971527;28;20029;-85
2022/05/03 09:17:43;;;;;;;9.63;4.28;;;19.40;62.30;;;;;;4990663;28;20045;-85
2022/05/03 09:25:55;;;;;;;6.60;3.90;;;19.20;62.10;;;;;;4985825;28;20195;-86
2022/05/03 09:28:22;;;;;;;6.25;3.97;;;19.20;62.00;;;;;;4975376;28;20042;-86
2022/05/03 09:30:52;;;;;;;8.60;4.18;;;19.20;61.90;;;;;;4977576;28;20092;-85
2022/05/03 09:33:21;;;;;;;7.63;4.40;;;19.20;61.90;;;;;;4945357;28;20104;-85
2022/05/03 09:35:47;;;;;;;5.88;4.18;;;19.20;62.00;;;;;;4971935;28;20645;-85
2022/05/03 09:38:12;;;;;;;4.70;3.72;;;19.20;61.90;;;;;;4961582;28;20120;-86
2022/05/03 09:40:46;;;;;;;7.43;3.83;;;19.20;61.90;;;;;;4971274;28;20058;-85
2022/05/03 09:43:12;;;;;;;6.75;3.70;;;19.10;61.80;;;;;;4956202;28;20025;-85
2022/05/03 09:45:38;;;;;;;7.75;4.28;;;19.10;61.70;;;;;;4976998;28;20256;-85
2022/05/03 09:48:04;;;;;;;6.35;3.60;;;19.90;62.90;;;;;;4978517;28;20105;-85
2022/05/03 09:50:29;;;;;;;5.65;3.70;;;19.20;61.90;;;;;;4969538;28;20038;-85
2022/05/03 09:52:59;;;;;;;6.95;4.40;;;19.20;61.80;;;;;;4979276;28;20465;-85
2022/05/03 09:55:45;;;;;;;5.97;3.60;;;19.10;61.80;;;;;;4976292;28;20123;-85
2022/05/03 09:58:11;;;;;;;8.80;3.72;;;20.50;62.70;;;;;;4976186;28;20244;-85
2022/05/03 10:00:39;;;;;;;6.90;3.72;;;19.10;61.70;;;;;;4975403;28;20375;-85
2022/05/03 10:03:07;;;;;;;8.70;3.85;;;19.10;61.70;;;;;;4958327;28;20444;-85
2022/05/03 10:05:33;;;;;;;7.38;3.78;;;19.10;61.80;;;;;;4969168;28;20121;-85
2022/05/03 10:07:59;;;;;;;6.65;3.58;;;19.10;61.80;;;;;;4959510;28;20022;-85
2022/05/03 10:10:25;;;;;;;5.32;4.03;;;19.20;61.80;;;;;;4977661;28;20103;-85
2022/05/03 10:12:51;;;;;;;7.07;3.92;;;19.10;61.80;;;;;;4979500;28;20141;-85
2022/05/03 10:20:35;;;;;;;4.53;3.60;;;19.10;61.80;;;;;;4955367;28;20045;-85
2022/05/03 10:21:11;;;;;;;6.53;3.70;;;19.10;61.80;;;;;;4978488;28;20065;-85
2022/05/03 10:23:36;;;;;;;11.00;3.97;;;19.10;61.80;;;;;;4979184;28;20034;-85
2022/05/03 10:26:07;;;;;;;8.90;3.50;;;19.30;61.90;;;;;;4974892;28;20080;-85
2022/05/03 10:28:59;;;;;;;10.65;4.28;;;19.10;61.80;;;;;;4958608;28;20021;-85
2022/05/03 10:31:24;;;;;;;5.28;3.60;;;19.20;61.90;;;;;;4963851;28;20034;-85
2022/05/03 10:33:50;;;;;;;7.65;3.80;;;19.10;61.80;;;;;;4972175;28;20030;-85
2022/05/03 10:36:31;;;;;;;4.28;3.40;;;19.10;61.80;;;;;;4969949;28;20052;-85
2022/05/03 10:39:16;;;;;;;6.80;3.40;;;19.10;61.80;;;;;;4970562;28;20025;-85
2022/05/03 10:41:57;;;;;;;4.75;2.95;;;19.10;61.90;;;;;;4973628;28;20030;-85
2022/05/03 10:44:46;;;;;;;7.82;3.22;;;19.50;62.10;;;;;;4971347;28;20246;-85
2022/05/03 10:47:13;;;;;;;6.70;3.50;;;19.10;61.80;;;;;;4972237;28;20037;-85
2022/05/03 10:50:26;;;;;;;5.45;3.78;;;19.10;61.90;;;;;;4965218;28;20058;-85
2022/05/03 10:53:05;;;;;;;8.10;3.60;;;19.10;61.90;;;;;;4980092;28;20038;-85
2022/05/03 10:55:40;;;;;;;6.30;3.35;;;19.10;61.90;;;;;;4971615;28;20065;-85
2022/05/03 10:58:39;;;;;;;6.45;3.20;;;19.10;61.90;;;;;;4963536;28;20034;-85
2022/05/03 11:01:20;;;;;;;6.80;3.55;;;19.00;61.80;;;;;;4970070;28;20314;-85
2022/05/03 11:03:48;;;;;;;5.45;3.20;;;19.10;61.90;;;;;;4976721;28;20041;-86
2022/05/03 11:06:23;;;;;;;5.80;3.47;;;19.10;61.80;;;;;;4978481;28;20489;-85
2022/05/03 11:11:44;;;;;;;6.68;3.20;;;19.10;61.90;;;;;;4969230;28;20113;-85
2022/05/03 11:14:24;;;;;;;8.35;3.53;;;19.10;62.00;;;;;;4972773;28;20022;-85
2022/05/03 11:17:08;;;;;;;7.53;3.42;;;19.10;62.00;;;;;;4970383;28;20042;-85
2022/05/03 11:19:51;;;;;;;4.65;3.33;;;19.50;62.20;;;;;;4978365;28;20136;-85
2022/05/03 11:22:25;;;;;;;6.20;4.05;;;19.00;62.00;;;;;;4962468;28;20030;-85
2022/05/03 11:24:53;;;;;;;5.30;3.83;;;19.10;62.10;;;;;;4977221;28;20018;-85
2022/05/03 11:27:18;;;;;;;5.10;3.10;;;19.10;62.10;;;;;;4949205;28;20505;-86
2022/05/03 11:29:49;;;;;;;4.15;2.95;;;19.80;62.60;;;;;;4957644;28;20472;-87
2022/05/03 11:32:15;;;;;;;6.15;3.40;;;19.10;62.20;;;;;;4948428;28;20072;-86
2022/05/03 11:34:41;;;;;;;5.72;3.25;;;19.10;62.30;;;;;;4959011;28;20053;-86
2022/05/03 11:37:09;;;;;;;5.53;3.38;;;19.20;62.40;;;;;;4972719;28;20634;-86
2022/05/03 11:39:37;;;;;;;5.72;3.30;;;19.10;62.30;;;;;;4970716;28;20030;-86
2022/05/03 11:42:09;;;;;;;4.47;3.10;;;19.50;62.60;;;;;;4949635;28;20033;-85
2022/05/03 11:44:35;;;;;;;5.10;3.42;;;19.10;62.40;;;;;;4974075;28;20281;-85
2022/05/03 11:47:03;;;;;;;4.25;3.20;;;19.10;62.50;;;;;;4956427;28;20346;-85
2022/05/03 11:49:31;;;;;;;10.85;3.65;;;19.10;62.50;;;;;;4975040;28;20030;-85
2022/05/03 11:57:33;;;;;;;5.83;3.63;;;19.10;62.60;;;;;;4972084;28;20072;-86
2022/05/03 11:59:59;;;;;;;5.90;3.00;;;19.10;63.20;;;;;;4972497;28;20648;-86
2022/05/03 12:02:27;;;;;;;6.10;3.63;;;19.10;62.60;;;;;;4961411;28;20149;-86
2022/05/03 12:05:10;;;;;;;4.75;3.40;;;19.10;62.50;;;;;;4973444;28;20456;-85
2022/05/03 12:08:05;;;;;;;7.88;3.53;;;19.10;62.60;;;;;;4971899;28;20049;-85
2022/05/03 12:10:31;;;;;;;4.07;3.25;;;19.10;62.60;;;;;;4958649;28;20668;-86
2022/05/03 12:13:10;;;;;;;4.00;3.00;;;19.80;63.10;;;;;;4982073;28;20096;-85
2022/05/03 12:15:40;;;;;;;5.25;3.40;;;20.00;63.20;;;;;;4967062;28;20042;-85
2022/05/03 12:18:15;;;;;;;5.43;3.33;;;19.10;62.70;;;;;;4964622;28;20739;-85
2022/05/03 12:21:13;;;;;;;6.40;4.13;;;19.10;62.70;;;;;;4970030;28;20061;-85
2022/05/03 12:23:44;;;;;;;8.68;4.32;;;19.10;62.70;;;;;;4960280;28;20035;-85
2022/05/03 12:26:37;;;;;;;4.90;3.42;;;19.10;62.80;;;;;;4980332;28;20039;-85
2022/05/03 12:29:03;;;;;;;7.18;3.60;;;19.10;62.80;;;;;;4979406;28;20023;-84
2022/05/03 12:31:35;;;;;;;5.47;3.47;;;19.90;63.30;;;;;;4981991;28;20117;-84
2022/05/03 12:34:01;;;;;;;10.88;4.00;;;19.20;62.90;;;;;;4961662;28;20038;-85
2022/05/03 12:36:28;;;;;;;8.40;3.58;;;19.10;62.80;;;;;;4982117;28;20488;-84
2022/05/03 12:38:54;;;;;;;5.28;3.45;;;19.10;62.80;;;;;;4979935;28;20484;-85
2022/05/03 12:41:28;;;;;;;6.63;3.97;;;19.10;63.00;;;;;;4981209;28;20165;-84
2022/05/03 12:44:07;;;;;;;3.97;2.90;;;19.10;62.80;;;;;;4979599;28;20030;-85
2022/05/03 12:46:32;;;;;;;6.60;3.45;;;19.00;62.80;;;;;;4968524;28;20081;-85
2022/05/03 12:49:00;;;;;;;4.70;3.10;;;20.00;63.40;;;;;;4954357;28;20035;-85
2022/05/03 12:51:26;;;;;;;5.00;3.33;;;19.10;62.80;;;;;;4974141;28;20038;-85
2022/05/03 12:53:51;;;;;;;5.22;3.58;;;19.10;62.90;;;;;;4964413;28;20143;-85
2022/05/03 12:59:01;;;;;;;6.55;3.40;;;19.40;63.10;;;;;;4982503;28;20081;-85
2022/05/03 13:01:27;;;;;;;7.13;3.85;;;19.10;62.90;;;;;;4978418;28;20468;-85
2022/05/03 13:03:54;;;;;;;5.90;3.55;;;19.10;62.80;;;;;;4983343;28;20471;-85
2022/05/03 13:06:19;;;;;;;4.78;3.10;;;19.10;62.90;;;;;;4972281;28;20122;-85
2022/05/03 13:08:45;;;;;;;5.55;3.67;;;19.10;62.90;;;;;;4984997;28;20126;-85
2022/05/03 13:11:10;;;;;;;5.78;3.28;;;19.00;62.80;;;;;;4976876;28;20081;-85
2022/05/03 13:13:36;;;;;;;4.55;3.17;;;19.10;62.90;;;;;;4985335;28;20393;-86
2022/05/03 13:16:02;;;;;;;5.45;3.10;;;19.00;62.90;;;;;;4983234;28;20026;-85
2022/05/03 13:18:28;;;;;;;7.15;3.72;;;19.00;63.00;;;;;;4986291;28;20042;-85
2022/05/03 13:20:54;;;;;;;4.85;3.03;;;19.00;62.90;;;;;;4983353;28;20106;-85
2022/05/03 13:23:20;;;;;;;5.18;3.08;;;19.00;62.90;;;;;;4981045;28;20035;-85
2022/05/03 13:25:45;;;;;;;5.57;3.47;;;19.50;63.10;;;;;;4964371;28;20035;-85
2022/05/03 13:31:24;;;;;;;6.18;3.30;;;19.10;62.90;;;;;;4964550;28;20054;-85
2022/05/03 13:33:50;;;;;;;4.03;2.90;;;19.00;62.70;;;;;;4947722;28;20030;-85
2022/05/03 13:41:43;;;;;;;5.93;3.20;;;19.00;62.50;;;;;;4976108;28;20041;-84
2022/05/03 13:44:09;;;;;;;7.93;3.53;;;19.00;63.20;;;;;;4966682;28;20022;-84
2022/05/03 13:46:35;;;;;;;5.32;3.30;;;19.00;62.50;;;;;;4978990;28;20621;-84
2022/05/03 13:49:00;;;;;;;5.78;3.25;;;19.10;62.60;;;;;;4973653;28;20033;-84
2022/05/03 13:51:26;;;;;;;5.65;3.25;;;19.10;63.10;;;;;;4973315;28;20030;-84
2022/05/03 13:53:51;;;;;;;4.72;2.90;;;19.10;62.50;;;;;;4968263;28;20026;-84
2022/05/03 13:56:17;;;;;;;5.32;3.22;;;19.00;62.50;;;;;;4959807;28;20322;-85
2022/05/03 13:58:43;;;;;;;5.18;3.38;;;19.00;62.50;;;;;;4972099;28;20246;-85